createdAt,value
2022-08-31T00:00:39.044Z,99.90
2022-08-31T00:03:27.057Z,99.90
2022-08-31T00:05:59.073Z,99.90
2022-08-31T00:08:29.633Z,99.90
2022-08-31T00:10:58.233Z,99.90
2022-08-31T00:13:28.259Z,99.90
2022-08-31T00:15:58.828Z,99.90
2022-08-31T00:18:29.005Z,99.90
2022-08-31T00:20:58.015Z,99.90
2022-08-31T00:23:26.755Z,99.90
2022-08-31T00:25:55.640Z,99.90
2022-08-31T00:28:24.484Z,99.90
2022-08-31T00:30:53.131Z,99.90
2022-08-31T00:33:21.773Z,99.90
2022-08-31T00:35:51.960Z,99.90
2022-08-31T00:38:24.682Z,99.90
2022-08-31T00:40:53.394Z,99.90
2022-08-31T00:43:41.175Z,99.90
2022-08-31T00:46:11.595Z,99.90
2022-08-31T00:48:43.218Z,99.90
2022-08-31T00:51:18.542Z,99.90
2022-08-31T00:53:50.851Z,99.90
2022-08-31T00:56:21.252Z,99.90
2022-08-31T00:58:54.794Z,99.90
2022-08-31T01:01:24.231Z,99.90
2022-08-31T01:03:52.999Z,99.90
2022-08-31T01:06:28.909Z,99.90
2022-08-31T01:09:00.135Z,99.90
2022-08-31T01:11:29.541Z,99.90
2022-08-31T01:13:58.438Z,99.90
2022-08-31T01:16:33.847Z,99.90
2022-08-31T01:19:06.751Z,99.90
2022-08-31T01:21:44.576Z,99.90
2022-08-31T01:24:15.830Z,99.90
2022-08-31T01:26:44.846Z,99.90
2022-08-31T01:29:24.962Z,99.90
2022-08-31T01:31:53.604Z,99.90
2022-08-31T01:34:22.677Z,99.90
2022-08-31T01:36:52.862Z,99.90
2022-08-31T01:39:23.730Z,99.90
2022-08-31T01:41:52.656Z,99.90
2022-08-31T01:44:23.394Z,99.90
2022-08-31T01:46:52.865Z,99.90
2022-08-31T01:49:24.176Z,99.90
2022-08-31T01:51:54.018Z,99.90
2022-08-31T01:54:26.734Z,99.90
2022-08-31T01:56:56.659Z,99.90
2022-08-31T01:59:33.949Z,99.90
2022-08-31T02:02:22.935Z,99.90
2022-08-31T02:04:52.361Z,99.90
2022-08-31T02:07:22.128Z,99.90
2022-08-31T02:09:53.692Z,99.90
2022-08-31T02:12:22.355Z,99.90
2022-08-31T02:14:51.371Z,99.90
2022-08-31T02:17:20.749Z,99.90
2022-08-31T02:19:49.391Z,99.90
2022-08-31T02:22:18.111Z,99.90
2022-08-31T02:24:46.814Z,99.90
2022-08-31T02:27:16.820Z,99.90
2022-08-31T02:29:45.893Z,99.90
2022-08-31T02:32:21.298Z,99.90
2022-08-31T02:34:50.168Z,99.90
2022-08-31T02:37:20.155Z,99.90
2022-08-31T02:39:51.711Z,99.90
2022-08-31T02:42:33.090Z,99.90
2022-08-31T02:45:18.026Z,99.90
2022-08-31T02:47:46.711Z,99.90
2022-08-31T02:50:42.466Z,99.90
2022-08-31T02:53:13.882Z,99.90
2022-08-31T02:55:44.335Z,99.90
2022-08-31T02:58:15.379Z,99.90
2022-08-31T03:00:48.348Z,99.90
2022-08-31T03:03:18.831Z,99.90
2022-08-31T03:05:47.842Z,99.90
2022-08-31T03:08:17.610Z,99.90
2022-08-31T03:10:48.902Z,99.90
2022-08-31T03:13:20.858Z,99.90
2022-08-31T03:15:49.826Z,99.90
2022-08-31T03:18:18.487Z,99.90
2022-08-31T03:20:47.241Z,99.90
2022-08-31T03:23:16.096Z,99.90
2022-08-31T03:25:44.743Z,99.90
2022-08-31T03:28:13.805Z,99.90
2022-08-31T03:30:48.703Z,99.90
2022-08-31T03:33:18.141Z,99.90
2022-08-31T03:35:47.164Z,99.90
2022-08-31T03:38:17.658Z,99.90
2022-08-31T03:40:46.312Z,99.90
2022-08-31T03:43:16.115Z,99.90
2022-08-31T03:45:45.964Z,99.90
2022-08-31T03:48:16.724Z,99.90
2022-08-31T03:50:46.939Z,99.90
2022-08-31T03:53:25.522Z,99.90
2022-08-31T03:56:02.033Z,99.90
2022-08-31T03:58:33.496Z,99.90
2022-08-31T04:01:05.996Z,99.90
2022-08-31T04:03:58.608Z,99.90
2022-08-31T04:06:47.843Z,99.90
2022-08-31T04:09:34.948Z,99.90
2022-08-31T04:12:21.948Z,99.90
2022-08-31T04:15:10.671Z,99.90
2022-08-31T04:17:59.592Z,99.90
2022-08-31T04:20:50.725Z,99.90
2022-08-31T04:23:19.761Z,99.90
2022-08-31T04:25:52.093Z,99.90
2022-08-31T04:28:20.877Z,99.90
2022-08-31T04:30:49.669Z,99.90
2022-08-31T04:33:19.087Z,99.90
2022-08-31T04:35:49.814Z,99.90
2022-08-31T04:38:19.231Z,99.90
2022-08-31T04:40:49.415Z,99.90
2022-08-31T04:43:21.250Z,99.90
2022-08-31T04:45:52.940Z,99.90
2022-08-31T04:48:21.911Z,99.90
2022-08-31T04:50:51.983Z,99.90
2022-08-31T04:53:20.690Z,99.90
2022-08-31T04:55:49.441Z,99.90
2022-08-31T04:58:20.592Z,99.90
2022-08-31T05:00:49.200Z,99.90
2022-08-31T05:03:23.876Z,99.90
2022-08-31T05:05:58.583Z,99.90
2022-08-31T05:08:29.111Z,99.90
2022-08-31T05:10:57.975Z,99.90
2022-08-31T05:13:28.201Z,99.90
2022-08-31T05:15:58.422Z,99.90
2022-08-31T05:18:27.076Z,99.90
2022-08-31T05:21:09.144Z,99.90
2022-08-31T05:23:39.257Z,99.90
2022-08-31T05:26:08.760Z,99.90
2022-08-31T05:28:37.468Z,99.90
2022-08-31T05:31:08.206Z,99.90
2022-08-31T05:33:43.332Z,99.90
2022-08-31T05:36:16.991Z,99.90
2022-08-31T05:38:46.366Z,99.90
2022-08-31T05:41:16.343Z,99.90
2022-08-31T05:43:45.185Z,99.90
2022-08-31T05:46:15.851Z,99.90
2022-08-31T05:48:49.616Z,99.90
2022-08-31T05:51:21.593Z,99.90
2022-08-31T05:53:50.875Z,99.90
2022-08-31T05:56:22.356Z,99.90
2022-08-31T05:58:55.054Z,99.90
2022-08-31T06:01:26.140Z,99.90
2022-08-31T06:04:17.713Z,99.90
2022-08-31T06:06:48.911Z,99.90
2022-08-31T06:09:21.663Z,99.90
2022-08-31T06:11:51.419Z,99.90
2022-08-31T06:14:21.901Z,99.90
2022-08-31T06:16:51.150Z,99.90
2022-08-31T06:19:21.913Z,99.90
2022-08-31T06:21:53.425Z,99.90
2022-08-31T06:24:27.474Z,99.90
2022-08-31T06:26:59.344Z,99.90
2022-08-31T06:29:34.463Z,99.90
2022-08-31T06:32:08.211Z,99.90
2022-08-31T06:34:40.728Z,99.90
2022-08-31T06:37:18.798Z,99.90
2022-08-31T06:40:27.531Z,99.90
2022-08-31T06:43:15.160Z,99.90
2022-08-31T06:45:58.771Z,99.90
2022-08-31T06:48:48.348Z,99.90
2022-08-31T06:51:17.107Z,99.90
2022-08-31T06:53:48.098Z,99.90
2022-08-31T06:56:36.219Z,99.90
2022-08-31T06:59:26.536Z,99.90
2022-08-31T07:02:21.718Z,99.90
2022-08-31T07:04:50.358Z,99.90
2022-08-31T07:07:19.034Z,99.90
2022-08-31T07:09:49.481Z,99.90
2022-08-31T07:12:18.468Z,99.90
2022-08-31T07:14:54.532Z,99.90
2022-08-31T07:17:25.009Z,99.90
2022-08-31T07:19:53.858Z,99.90
2022-08-31T07:22:23.428Z,99.90
2022-08-31T07:24:58.886Z,99.90
2022-08-31T07:27:30.296Z,99.90
2022-08-31T07:30:01.630Z,99.90
2022-08-31T07:32:34.763Z,99.90
2022-08-31T07:35:04.155Z,99.90
2022-08-31T07:37:50.449Z,99.90
2022-08-31T07:40:42.320Z,99.90
2022-08-31T07:43:13.130Z,99.90
2022-08-31T07:45:44.222Z,99.90
2022-08-31T07:48:17.109Z,99.90
2022-08-31T07:51:06.599Z,99.90
2022-08-31T07:53:47.765Z,99.90
2022-08-31T07:56:34.693Z,99.90
2022-08-31T07:59:15.273Z,99.90
2022-08-31T08:01:48.336Z,99.90
2022-08-31T08:04:25.463Z,99.90
2022-08-31T08:07:17.638Z,99.90
2022-08-31T08:10:15.771Z,99.90
2022-08-31T08:13:13.531Z,99.90
2022-08-31T08:15:56.377Z,99.90
2022-08-31T08:18:46.989Z,99.90
2022-08-31T08:21:20.157Z,99.90
2022-08-31T08:23:49.570Z,99.90
2022-08-31T08:26:36.896Z,99.90
2022-08-31T08:29:29.175Z,99.90
2022-08-31T08:32:04.120Z,99.90
2022-08-31T08:34:34.376Z,99.90
2022-08-31T08:37:07.922Z,99.90
2022-08-31T08:39:36.818Z,99.90
2022-08-31T08:42:14.875Z,99.90
2022-08-31T08:44:46.330Z,99.90
2022-08-31T08:47:20.948Z,99.90
2022-08-31T08:50:03.839Z,99.90
2022-08-31T08:52:42.778Z,99.90
2022-08-31T08:55:15.714Z,99.90
2022-08-31T08:57:47.182Z,99.90
2022-08-31T09:00:23.290Z,99.90
2022-08-31T09:03:01.310Z,99.90
2022-08-31T09:06:09.776Z,99.90
2022-08-31T09:09:09.368Z,99.90
2022-08-31T09:11:55.114Z,99.90
2022-08-31T09:14:36.731Z,99.90
2022-08-31T09:17:17.188Z,99.90
2022-08-31T09:20:06.229Z,99.90
2022-08-31T09:22:47.244Z,99.90
2022-08-31T09:25:19.195Z,99.90
2022-08-31T09:28:15.323Z,99.90
2022-08-31T09:30:52.605Z,99.90
2022-08-31T09:33:26.143Z,99.90
2022-08-31T09:35:58.360Z,99.90
2022-08-31T09:38:32.752Z,99.90
2022-08-31T09:41:03.858Z,99.90
2022-08-31T09:43:41.103Z,99.90
2022-08-31T09:46:13.026Z,99.90
2022-08-31T09:48:48.862Z,99.90
2022-08-31T09:51:24.691Z,99.90
2022-08-31T09:54:11.668Z,99.90
2022-08-31T09:56:55.623Z,99.90
2022-08-31T09:59:38.519Z,99.90
2022-08-31T10:02:12.224Z,99.90
2022-08-31T10:04:54.682Z,99.90
2022-08-31T10:07:37.779Z,99.90
2022-08-31T10:10:27.929Z,99.90
2022-08-31T10:13:05.393Z,99.90
2022-08-31T10:15:41.340Z,99.90
2022-08-31T10:18:16.371Z,99.90
2022-08-31T10:20:51.872Z,99.90
2022-08-31T10:23:27.558Z,99.90
2022-08-31T10:26:02.422Z,99.90
2022-08-31T10:28:37.384Z,99.90
2022-08-31T10:31:13.758Z,99.90
2022-08-31T10:34:06.587Z,99.90
2022-08-31T10:36:40.601Z,99.90
2022-08-31T10:39:20.499Z,99.90
2022-08-31T10:41:51.372Z,99.90
2022-08-31T10:44:26.394Z,99.70
2022-08-31T10:46:59.131Z,98.80
2022-08-31T10:49:28.296Z,98.70
2022-08-31T10:52:05.455Z,98.80
2022-08-31T10:54:44.891Z,98.30
2022-08-31T10:57:32.184Z,98.10
2022-08-31T11:00:06.623Z,97.80
2022-08-31T11:02:50.421Z,97.70
2022-08-31T11:05:32.720Z,97.90
2022-08-31T11:08:15.999Z,97.70
2022-08-31T11:10:49.814Z,97.50
2022-08-31T11:13:41.390Z,97.80
2022-08-31T11:16:22.036Z,97.20
2022-08-31T11:19:21.140Z,96.60
2022-08-31T11:22:11.907Z,96.40
2022-08-31T11:25:21.359Z,96.20
2022-08-31T11:27:55.138Z,96.30
2022-08-31T11:30:29.150Z,96.80
2022-08-31T11:33:03.226Z,96.80
2022-08-31T11:36:06.796Z,96.80
2022-08-31T11:38:48.010Z,96.50
2022-08-31T11:41:41.415Z,97.00
2022-08-31T11:44:11.352Z,96.80
2022-08-31T11:47:08.815Z,96.90
2022-08-31T11:49:46.140Z,96.40
2022-08-31T11:52:32.213Z,96.80
2022-08-31T11:55:16.528Z,96.50
2022-08-31T11:58:23.634Z,96.10
2022-08-31T12:00:59.415Z,95.50
2022-08-31T12:03:56.819Z,96.60
2022-08-31T12:07:07.979Z,95.70
2022-08-31T12:10:09.627Z,95.20
2022-08-31T12:13:07.647Z,95.40
2022-08-31T12:15:53.092Z,95.80
2022-08-31T12:18:40.577Z,96.60
2022-08-31T12:21:31.371Z,96.90
2022-08-31T12:24:15.352Z,97.10
2022-08-31T12:27:18.806Z,96.70
2022-08-31T12:29:47.967Z,96.80
2022-08-31T12:32:26.934Z,95.80
2022-08-31T12:35:11.530Z,96.10
2022-08-31T12:37:41.090Z,96.20
2022-08-31T12:40:13.606Z,96.40
2022-08-31T12:42:53.099Z,95.20
2022-08-31T12:45:29.133Z,94.90
2022-08-31T12:48:07.866Z,94.10
2022-08-31T12:50:45.915Z,93.70
2022-08-31T12:53:36.518Z,93.30
2022-08-31T12:56:13.087Z,92.90
2022-08-31T12:58:57.885Z,92.70
2022-08-31T13:01:28.375Z,92.10
2022-08-31T13:04:00.923Z,91.50
2022-08-31T13:06:33.135Z,91.90
2022-08-31T13:09:03.682Z,90.60
2022-08-31T13:11:40.754Z,90.60
2022-08-31T13:14:15.395Z,91.50
2022-08-31T13:16:46.837Z,90.90
2022-08-31T13:19:26.017Z,89.50
2022-08-31T13:22:02.116Z,90.00
2022-08-31T13:24:37.023Z,90.70
2022-08-31T13:27:08.270Z,90.00
2022-08-31T13:29:45.263Z,91.90
2022-08-31T13:32:32.528Z,94.00
2022-08-31T13:35:04.494Z,94.70
2022-08-31T13:37:39.125Z,95.10
2022-08-31T13:40:12.321Z,95.20
2022-08-31T13:42:45.750Z,95.70
2022-08-31T13:45:26.691Z,96.10
2022-08-31T13:47:59.199Z,95.40
2022-08-31T13:50:34.227Z,94.90
2022-08-31T13:55:55.557Z,93.60
2022-08-31T13:58:28.909Z,93.00
2022-08-31T14:01:23.172Z,93.40
2022-08-31T14:03:58.488Z,93.50
2022-08-31T14:06:30.178Z,93.10
2022-08-31T14:09:05.810Z,92.30
2022-08-31T14:11:35.729Z,92.50
2022-08-31T14:14:07.547Z,91.50
2022-08-31T14:16:40.178Z,91.40
2022-08-31T14:19:13.534Z,90.60
2022-08-31T14:21:46.134Z,90.50
2022-08-31T14:24:16.750Z,90.90
2022-08-31T14:26:47.068Z,91.40
2022-08-31T14:29:18.042Z,91.80
2022-08-31T14:31:52.476Z,92.00
2022-08-31T14:34:27.505Z,92.10
2022-08-31T14:37:02.594Z,91.70
2022-08-31T14:39:34.559Z,91.60
2022-08-31T14:42:07.389Z,91.90
2022-08-31T14:44:39.075Z,92.30
2022-08-31T14:47:08.467Z,92.20
2022-08-31T14:49:37.341Z,92.10
2022-08-31T14:52:07.171Z,92.40
2022-08-31T14:54:37.925Z,92.60
2022-08-31T14:57:12.508Z,93.30
2022-08-31T14:59:43.948Z,93.60
2022-08-31T15:02:16.495Z,93.50
2022-08-31T15:04:46.007Z,93.30
2022-08-31T15:07:16.246Z,93.00
2022-08-31T15:09:50.234Z,93.10
2022-08-31T15:12:19.533Z,93.20
2022-08-31T15:14:48.205Z,93.50
2022-08-31T15:17:19.174Z,93.40
2022-08-31T15:19:52.261Z,94.60
2022-08-31T15:22:21.072Z,95.10
2022-08-31T15:24:51.130Z,95.50
2022-08-31T15:27:21.671Z,95.90
2022-08-31T15:29:59.268Z,96.10
2022-08-31T15:32:28.858Z,96.20
2022-08-31T15:34:58.371Z,96.70
2022-08-31T15:37:31.680Z,96.50
2022-08-31T15:40:05.413Z,96.70
2022-08-31T15:42:38.433Z,97.00
2022-08-31T15:45:08.792Z,97.20
2022-08-31T15:47:57.663Z,97.70
2022-08-31T15:50:31.888Z,97.70
2022-08-31T15:53:08.726Z,97.60
2022-08-31T15:55:40.719Z,97.70
2022-08-31T15:58:10.868Z,98.00
2022-08-31T16:00:42.238Z,97.60
2022-08-31T16:03:12.881Z,97.70
2022-08-31T16:05:43.660Z,97.80
2022-08-31T16:08:14.441Z,97.90
2022-08-31T16:10:46.693Z,97.80
2022-08-31T16:13:16.344Z,97.50
2022-08-31T16:15:51.155Z,97.40
2022-08-31T16:18:21.326Z,96.60
2022-08-31T16:20:52.197Z,96.30
2022-08-31T16:23:21.169Z,96.00
2022-08-31T16:25:51.203Z,95.70
2022-08-31T16:28:21.935Z,95.90
2022-08-31T16:30:51.974Z,95.70
2022-08-31T16:33:21.398Z,95.80
2022-08-31T16:35:50.415Z,95.80
2022-08-31T16:38:19.456Z,95.80
2022-08-31T16:40:53.340Z,96.20
2022-08-31T16:43:22.143Z,96.30
2022-08-31T16:45:50.845Z,96.50
2022-08-31T16:48:37.108Z,96.40
2022-08-31T16:51:15.092Z,96.40
2022-08-31T16:53:47.701Z,96.40
2022-08-31T16:56:18.606Z,96.60
2022-08-31T16:58:52.212Z,97.00
2022-08-31T17:01:23.963Z,97.40
2022-08-31T17:03:56.031Z,97.70
2022-08-31T17:06:25.753Z,97.90
2022-08-31T17:08:55.793Z,98.00
2022-08-31T17:11:31.386Z,97.80
2022-08-31T17:14:02.325Z,98.00
2022-08-31T17:16:34.748Z,98.30
2022-08-31T17:19:08.185Z,98.10
2022-08-31T17:21:49.579Z,98.40
2022-08-31T17:24:21.777Z,98.60
2022-08-31T17:26:55.927Z,98.50
2022-08-31T17:29:24.653Z,98.60
2022-08-31T17:31:56.332Z,98.60
2022-08-31T17:34:28.192Z,99.00
2022-08-31T17:36:59.251Z,99.30
2022-08-31T17:39:29.123Z,99.60
2022-08-31T17:41:59.423Z,99.30
2022-08-31T17:44:31.084Z,99.00
2022-08-31T17:47:03.784Z,99.30
2022-08-31T17:49:37.948Z,99.10
2022-08-31T17:52:08.617Z,98.90
2022-08-31T17:54:40.388Z,98.70
2022-08-31T17:57:13.074Z,98.90
2022-08-31T17:59:44.244Z,98.90
2022-08-31T18:02:15.106Z,99.30
2022-08-31T18:04:44.478Z,99.40
2022-08-31T18:07:14.829Z,99.30
2022-08-31T18:09:45.657Z,99.40
2022-08-31T18:12:18.254Z,99.60
2022-08-31T18:14:47.037Z,99.80
2022-08-31T18:17:17.265Z,99.90
2022-08-31T18:19:47.067Z,99.90
2022-08-31T18:22:18.466Z,99.90
2022-08-31T18:24:47.222Z,99.90
2022-08-31T18:27:17.238Z,99.90
2022-08-31T18:29:47.004Z,99.90
2022-08-31T18:32:15.996Z,99.90
2022-08-31T18:34:47.302Z,99.90
2022-08-31T18:37:25.914Z,99.90
2022-08-31T18:40:12.307Z,99.90
2022-08-31T18:43:00.019Z,99.90
2022-08-31T18:45:30.923Z,99.90
2022-08-31T18:50:50.753Z,99.90
2022-08-31T18:53:28.852Z,99.90
2022-08-31T18:56:00.673Z,99.90
2022-08-31T18:58:30.676Z,99.90
2022-08-31T19:01:00.121Z,99.90
2022-08-31T19:03:29.212Z,99.90
2022-08-31T19:05:58.484Z,99.90
2022-08-31T19:08:28.321Z,99.90
2022-08-31T19:10:58.271Z,99.90
2022-08-31T19:13:31.592Z,99.90
2022-08-31T19:16:14.626Z,99.90
2022-08-31T19:18:45.230Z,99.90
2022-08-31T19:21:15.830Z,99.90
2022-08-31T19:23:44.483Z,99.90
2022-08-31T19:26:19.634Z,99.90
2022-08-31T19:28:51.177Z,99.90
2022-08-31T19:31:22.463Z,99.90
2022-08-31T19:33:56.672Z,99.90
2022-08-31T19:36:27.386Z,99.90
2022-08-31T19:38:57.618Z,99.90
2022-08-31T19:41:27.790Z,99.90
2022-08-31T19:44:07.717Z,99.90
2022-08-31T19:46:39.783Z,99.90
2022-08-31T19:49:11.185Z,99.90
2022-08-31T19:51:42.047Z,99.90
2022-08-31T19:54:12.934Z,99.90
2022-08-31T19:56:43.809Z,99.90
2022-08-31T19:59:18.332Z,99.90
2022-08-31T20:01:52.340Z,99.90
2022-08-31T20:04:24.666Z,99.90
2022-08-31T20:06:53.273Z,99.90
2022-08-31T20:09:23.583Z,99.90
2022-08-31T20:11:54.198Z,99.90
2022-08-31T20:14:23.775Z,99.90
2022-08-31T20:16:54.995Z,99.90
2022-08-31T20:19:25.798Z,99.90
2022-08-31T20:21:55.858Z,99.90
2022-08-31T20:24:26.843Z,99.90
2022-08-31T20:27:01.762Z,99.90
2022-08-31T20:29:38.304Z,99.90
2022-08-31T20:32:08.396Z,99.90
2022-08-31T20:34:38.357Z,99.90
2022-08-31T20:37:07.624Z,99.90
2022-08-31T20:39:38.380Z,99.90
2022-08-31T20:42:07.858Z,99.90
2022-08-31T20:44:38.807Z,99.90
2022-08-31T20:47:28.812Z,99.90
2022-08-31T20:50:00.282Z,99.90
2022-08-31T20:52:34.950Z,99.90
2022-08-31T20:55:06.611Z,99.90
2022-08-31T20:57:37.725Z,99.90
2022-08-31T21:00:10.244Z,99.90
2022-08-31T21:02:41.008Z,99.90
2022-08-31T21:05:37.419Z,99.90
2022-08-31T21:08:02.651Z,99.90
2022-08-31T21:10:36.378Z,99.90
2022-08-31T21:13:11.384Z,99.90
2022-08-31T21:15:45.337Z,99.90
2022-08-31T21:18:17.677Z,99.90
2022-08-31T21:20:47.408Z,99.90
2022-08-31T21:23:16.035Z,99.90
2022-08-31T21:25:46.393Z,99.90
2022-08-31T21:28:17.529Z,99.90
2022-08-31T21:30:49.428Z,99.90
2022-08-31T21:33:19.930Z,99.90
2022-08-31T21:35:48.973Z,99.90
2022-08-31T21:38:18.311Z,99.90
2022-08-31T21:40:50.592Z,99.90
2022-08-31T21:43:19.746Z,99.90
2022-08-31T21:45:48.412Z,99.90
2022-08-31T21:48:26.464Z,99.90
2022-08-31T21:50:55.763Z,99.90
2022-08-31T21:53:25.880Z,99.90
2022-08-31T21:55:55.082Z,99.90
2022-08-31T21:58:23.734Z,99.90
2022-08-31T22:00:52.650Z,99.90
2022-08-31T22:03:22.624Z,99.90
2022-08-31T22:05:53.248Z,99.90
2022-08-31T22:08:26.486Z,99.90
2022-08-31T22:10:55.596Z,99.90
2022-08-31T22:13:24.105Z,99.90
2022-08-31T22:15:52.891Z,99.90
2022-08-31T22:21:16.471Z,99.90
2022-08-31T22:23:45.556Z,99.90
2022-08-31T22:26:14.569Z,99.90
2022-08-31T22:28:43.989Z,99.90
2022-08-31T22:31:12.761Z,99.90
2022-08-31T22:33:47.233Z,99.90
2022-08-31T22:36:19.634Z,99.90
2022-08-31T22:39:03.262Z,99.90
2022-08-31T22:41:32.891Z,99.90
2022-08-31T22:44:01.927Z,99.90
2022-08-31T22:46:30.640Z,99.90
2022-08-31T22:48:59.614Z,99.90
2022-08-31T22:51:29.711Z,99.90
2022-08-31T22:53:58.531Z,99.90
2022-08-31T22:56:29.924Z,99.90
2022-08-31T22:59:00.266Z,99.90
2022-08-31T23:01:31.309Z,99.90
2022-08-31T23:04:06.655Z,99.90
2022-08-31T23:06:39.156Z,99.90
2022-08-31T23:09:10.139Z,99.90
2022-08-31T23:11:39.994Z,99.90
2022-08-31T23:14:10.469Z,99.90
2022-08-31T23:16:42.386Z,99.90
2022-08-31T23:19:17.216Z,99.90
2022-08-31T23:21:53.019Z,99.90
2022-08-31T23:24:29.921Z,99.90
2022-08-31T23:27:04.219Z,99.90
2022-08-31T23:29:36.387Z,99.90
2022-08-31T23:32:05.411Z,99.90
2022-08-31T23:34:38.590Z,99.90
2022-08-31T23:37:10.197Z,99.90
2022-08-31T23:39:44.282Z,99.90
2022-08-31T23:42:16.262Z,99.90
2022-08-31T23:44:46.623Z,99.90
2022-08-31T23:47:17.523Z,99.90
2022-08-31T23:49:47.210Z,99.90
2022-08-31T23:52:19.682Z,99.90
2022-08-31T23:54:52.453Z,99.90
2022-08-31T23:57:31.799Z,99.90
